Stewart Heights, Texas
Current Conditions -  °F | °C
As of 5:50 AM on Thursday 18 Dec 2014 (Local Time) from KEFD Reporting Station
Light Rain Light Rain  
Wind Chill: 64°   Ceiling: 2500
Heat Index: 64°   Visibility: 5mi
Dew Point: 61°   Wind: 3mph
Humidity: 88%   Direction: 360°N
Pressure: 30.05"   Gusts: NA
Location:  29.7803°N, 94.894°W
Report Text: KEFD 181150Z 36003KT 5SM -RA SCT015 BKN025 18/16 A3005
Loading
Personal Weather Stations






























Interactive Weather Map New forecast layout! Learn more

10-Day Weather Forecast

Advertisements
Track Severe Weather on mobile